sensor_id;sensor_type;location;lat;lon;timestamp;temperature;humidity
29413;DHT22;16389;50.126;8.450;2023-04-28T00:01:33;11.40;99.90
29413;DHT22;16389;50.126;8.450;2023-04-28T00:04:23;11.30;99.90
29413;DHT22;16389;50.126;8.450;2023-04-28T00:07:14;11.30;99.90
29413;DHT22;16389;50.126;8.450;2023-04-28T00:10:06;11.40;99.90
29413;DHT22;16389;50.126;8.450;2023-04-28T00:12:57;11.40;99.90
29413;DHT22;16389;50.126;8.450;2023-04-28T00:15:49;11.40;99.90
29413;DHT22;16389;50.126;8.450;2023-04-28T00:18:40;11.40;99.90
29413;DHT22;16389;50.126;8.450;2023-04-28T00:21:31;11.40;99.90
29413;DHT22;16389;50.126;8.450;2023-04-28T00:24:22;11.40;99.90
29413;DHT22;16389;50.126;8.450;2023-04-28T00:27:13;11.40;99.90
29413;DHT22;16389;50.126;8.450;2023-04-28T00:30:06;11.40;99.90
29413;DHT22;16389;50.126;8.450;2023-04-28T00:32:57;11.40;99.90
29413;DHT22;16389;50.126;8.450;2023-04-28T00:35:48;11.30;99.90
29413;DHT22;16389;50.126;8.450;2023-04-28T00:38:39;11.30;99.90
29413;DHT22;16389;50.126;8.450;2023-04-28T00:41:30;11.30;99.90
29413;DHT22;16389;50.126;8.450;2023-04-28T00:44:21;11.30;99.90
29413;DHT22;16389;50.126;8.450;2023-04-28T00:47:12;11.30;99.90
29413;DHT22;16389;50.126;8.450;2023-04-28T00:50:06;11.20;99.90
29413;DHT22;16389;50.126;8.450;2023-04-28T00:52:56;11.30;99.90
29413;DHT22;16389;50.126;8.450;2023-04-28T00:55:48;11.30;99.90
29413;DHT22;16389;50.126;8.450;2023-04-28T00:58:40;11.30;99.90
29413;DHT22;16389;50.126;8.450;2023-04-28T01:01:32;11.30;99.90
29413;DHT22;16389;50.126;8.450;2023-04-28T01:04:22;11.20;99.90
29413;DHT22;16389;50.126;8.450;2023-04-28T01:07:13;11.20;99.90
29413;DHT22;16389;50.126;8.450;2023-04-28T01:10:05;11.20;99.90
29413;DHT22;16389;50.126;8.450;2023-04-28T01:12:56;11.20;99.90
29413;DHT22;16389;50.126;8.450;2023-04-28T01:15:47;11.20;99.90
29413;DHT22;16389;50.126;8.450;2023-04-28T01:18:42;11.20;99.90
29413;DHT22;16389;50.126;8.450;2023-04-28T01:21:35;11.20;99.90
29413;DHT22;16389;50.126;8.450;2023-04-28T01:24:26;11.30;99.90
29413;DHT22;16389;50.126;8.450;2023-04-28T01:27:19;11.30;99.90
29413;DHT22;16389;50.126;8.450;2023-04-28T01:30:10;11.30;99.90
29413;DHT22;16389;50.126;8.450;2023-04-28T01:33:02;11.20;99.90
29413;DHT22;16389;50.126;8.450;2023-04-28T01:35:56;11.30;99.90
29413;DHT22;16389;50.126;8.450;2023-04-28T01:38:48;11.20;99.90
29413;DHT22;16389;50.126;8.450;2023-04-28T01:41:38;11.20;99.90
29413;DHT22;16389;50.126;8.450;2023-04-28T01:44:29;11.20;99.90
29413;DHT22;16389;50.126;8.450;2023-04-28T01:47:20;11.10;99.90
29413;DHT22;16389;50.126;8.450;2023-04-28T01:50:11;11.00;99.90
29413;DHT22;16389;50.126;8.450;2023-04-28T01:53:01;10.90;99.90
29413;DHT22;16389;50.126;8.450;2023-04-28T01:55:52;10.80;99.90
29413;DHT22;16389;50.126;8.450;2023-04-28T01:58:43;10.80;99.90
29413;DHT22;16389;50.126;8.450;2023-04-28T02:01:34;10.70;99.90
29413;DHT22;16389;50.126;8.450;2023-04-28T02:04:25;10.70;99.90
29413;DHT22;16389;50.126;8.450;2023-04-28T02:07:16;10.50;99.90
29413;DHT22;16389;50.126;8.450;2023-04-28T02:10:08;10.60;99.90
29413;DHT22;16389;50.126;8.450;2023-04-28T02:12:59;10.60;99.90
29413;DHT22;16389;50.126;8.450;2023-04-28T02:15:49;10.50;99.90
29413;DHT22;16389;50.126;8.450;2023-04-28T02:18:40;10.50;99.90
29413;DHT22;16389;50.126;8.450;2023-04-28T02:21:31;10.50;99.90
29413;DHT22;16389;50.126;8.450;2023-04-28T02:24:22;10.50;99.90
29413;DHT22;16389;50.126;8.450;2023-04-28T02:27:13;10.50;99.90
29413;DHT22;16389;50.126;8.450;2023-04-28T02:30:05;10.40;99.90
29413;DHT22;16389;50.126;8.450;2023-04-28T02:32:59;10.40;99.90
29413;DHT22;16389;50.126;8.450;2023-04-28T02:35:58;10.40;99.90
29413;DHT22;16389;50.126;8.450;2023-04-28T02:38:48;10.40;99.90
29413;DHT22;16389;50.126;8.450;2023-04-28T02:41:39;10.40;99.90
29413;DHT22;16389;50.126;8.450;2023-04-28T02:44:30;10.40;99.90
29413;DHT22;16389;50.126;8.450;2023-04-28T02:47:21;10.30;99.90
29413;DHT22;16389;50.126;8.450;2023-04-28T02:50:12;10.20;99.90
29413;DHT22;16389;50.126;8.450;2023-04-28T02:53:03;10.20;99.90
29413;DHT22;16389;50.126;8.450;2023-04-28T02:55:55;10.20;99.90
29413;DHT22;16389;50.126;8.450;2023-04-28T02:58:45;10.20;99.90
29413;DHT22;16389;50.126;8.450;2023-04-28T03:01:36;10.20;99.90
29413;DHT22;16389;50.126;8.450;2023-04-28T03:04:27;10.20;99.90
29413;DHT22;16389;50.126;8.450;2023-04-28T03:07:18;10.20;99.90
29413;DHT22;16389;50.126;8.450;2023-04-28T03:10:09;10.20;99.90
29413;DHT22;16389;50.126;8.450;2023-04-28T03:13:00;10.20;99.90
29413;DHT22;16389;50.126;8.450;2023-04-28T03:15:51;10.20;99.90
29413;DHT22;16389;50.126;8.450;2023-04-28T03:18:42;10.10;99.90
29413;DHT22;16389;50.126;8.450;2023-04-28T03:21:33;10.10;99.90
29413;DHT22;16389;50.126;8.450;2023-04-28T03:24:24;10.10;99.90
29413;DHT22;16389;50.126;8.450;2023-04-28T03:27:15;10.10;99.90
29413;DHT22;16389;50.126;8.450;2023-04-28T03:30:06;10.10;99.90
29413;DHT22;16389;50.126;8.450;2023-04-28T03:32:57;10.20;99.90
29413;DHT22;16389;50.126;8.450;2023-04-28T03:35:48;10.10;99.90
29413;DHT22;16389;50.126;8.450;2023-04-28T03:38:39;10.10;99.90
29413;DHT22;16389;50.126;8.450;2023-04-28T03:41:30;10.10;99.90
29413;DHT22;16389;50.126;8.450;2023-04-28T03:44:21;10.20;99.90
29413;DHT22;16389;50.126;8.450;2023-04-28T03:47:12;10.20;99.90
29413;DHT22;16389;50.126;8.450;2023-04-28T03:50:04;10.20;99.90
29413;DHT22;16389;50.126;8.450;2023-04-28T03:52:54;10.30;99.90
29413;DHT22;16389;50.126;8.450;2023-04-28T03:55:45;10.20;99.90
29413;DHT22;16389;50.126;8.450;2023-04-28T03:58:36;10.30;99.90
29413;DHT22;16389;50.126;8.450;2023-04-28T04:01:26;10.20;99.90
29413;DHT22;16389;50.126;8.450;2023-04-28T04:04:16;10.20;99.90
29413;DHT22;16389;50.126;8.450;2023-04-28T04:07:07;10.20;99.90
29413;DHT22;16389;50.126;8.450;2023-04-28T04:09:58;10.20;99.90
29413;DHT22;16389;50.126;8.450;2023-04-28T04:12:49;10.20;99.90
29413;DHT22;16389;50.126;8.450;2023-04-28T04:15:40;10.20;99.90
29413;DHT22;16389;50.126;8.450;2023-04-28T04:18:32;10.20;99.90
29413;DHT22;16389;50.126;8.450;2023-04-28T04:21:22;10.20;99.90
29413;DHT22;16389;50.126;8.450;2023-04-28T04:24:13;10.20;99.90
29413;DHT22;16389;50.126;8.450;2023-04-28T04:27:04;10.20;99.90
29413;DHT22;16389;50.126;8.450;2023-04-28T04:29:55;10.10;99.90
29413;DHT22;16389;50.126;8.450;2023-04-28T04:32:46;10.10;99.90
29413;DHT22;16389;50.126;8.450;2023-04-28T04:35:37;10.00;99.90
29413;DHT22;16389;50.126;8.450;2023-04-28T04:38:27;10.10;99.90
29413;DHT22;16389;50.126;8.450;2023-04-28T04:41:18;10.10;99.90
29413;DHT22;16389;50.126;8.450;2023-04-28T04:44:08;10.00;99.90
29413;DHT22;16389;50.126;8.450;2023-04-28T04:46:59;10.10;99.90
29413;DHT22;16389;50.126;8.450;2023-04-28T04:49:52;10.10;99.90
29413;DHT22;16389;50.126;8.450;2023-04-28T04:52:42;10.20;99.90
29413;DHT22;16389;50.126;8.450;2023-04-28T04:55:33;10.20;99.90
29413;DHT22;16389;50.126;8.450;2023-04-28T04:58:24;10.30;99.90
29413;DHT22;16389;50.126;8.450;2023-04-28T05:01:15;10.40;99.90
29413;DHT22;16389;50.126;8.450;2023-04-28T05:04:06;10.40;99.90
29413;DHT22;16389;50.126;8.450;2023-04-28T05:06:57;10.30;99.90
29413;DHT22;16389;50.126;8.450;2023-04-28T05:09:48;10.30;99.90
29413;DHT22;16389;50.126;8.450;2023-04-28T05:12:38;10.30;99.90
29413;DHT22;16389;50.126;8.450;2023-04-28T05:15:30;10.40;99.90
29413;DHT22;16389;50.126;8.450;2023-04-28T05:18:20;10.30;99.90
29413;DHT22;16389;50.126;8.450;2023-04-28T05:21:11;10.30;99.90
29413;DHT22;16389;50.126;8.450;2023-04-28T05:24:02;10.30;99.90
29413;DHT22;16389;50.126;8.450;2023-04-28T05:26:59;10.20;99.90
29413;DHT22;16389;50.126;8.450;2023-04-28T05:29:50;10.20;99.90
29413;DHT22;16389;50.126;8.450;2023-04-28T05:32:41;10.30;99.90
29413;DHT22;16389;50.126;8.450;2023-04-28T05:35:32;10.20;99.90
29413;DHT22;16389;50.126;8.450;2023-04-28T05:38:22;10.20;99.90
29413;DHT22;16389;50.126;8.450;2023-04-28T05:41:13;10.20;99.90
29413;DHT22;16389;50.126;8.450;2023-04-28T05:44:04;10.20;99.90
29413;DHT22;16389;50.126;8.450;2023-04-28T05:46:55;10.30;99.90
29413;DHT22;16389;50.126;8.450;2023-04-28T05:49:46;10.30;99.90
29413;DHT22;16389;50.126;8.450;2023-04-28T05:52:37;10.30;99.90
29413;DHT22;16389;50.126;8.450;2023-04-28T05:55:28;10.40;99.90
29413;DHT22;16389;50.126;8.450;2023-04-28T05:58:19;10.30;99.90
29413;DHT22;16389;50.126;8.450;2023-04-28T06:01:09;10.30;99.90
29413;DHT22;16389;50.126;8.450;2023-04-28T06:04:00;10.30;99.90
29413;DHT22;16389;50.126;8.450;2023-04-28T06:06:51;10.40;99.90
29413;DHT22;16389;50.126;8.450;2023-04-28T06:13:26;10.30;99.90
29413;DHT22;16389;50.126;8.450;2023-04-28T06:15:52;10.30;99.90
29413;DHT22;16389;50.126;8.450;2023-04-28T06:18:17;10.30;99.90
29413;DHT22;16389;50.126;8.450;2023-04-28T06:20:43;10.40;99.90
29413;DHT22;16389;50.126;8.450;2023-04-28T06:23:09;10.40;99.90
29413;DHT22;16389;50.126;8.450;2023-04-28T06:25:35;10.40;99.90
29413;DHT22;16389;50.126;8.450;2023-04-28T06:28:01;10.50;99.90
29413;DHT22;16389;50.126;8.450;2023-04-28T06:30:27;10.50;99.90
29413;DHT22;16389;50.126;8.450;2023-04-28T06:32:52;10.60;99.90
29413;DHT22;16389;50.126;8.450;2023-04-28T06:35:18;10.60;99.90
29413;DHT22;16389;50.126;8.450;2023-04-28T06:37:45;10.70;99.90
29413;DHT22;16389;50.126;8.450;2023-04-28T06:40:11;10.70;99.90
29413;DHT22;16389;50.126;8.450;2023-04-28T06:42:37;10.80;99.90
29413;DHT22;16389;50.126;8.450;2023-04-28T06:45:02;10.80;99.90
29413;DHT22;16389;50.126;8.450;2023-04-28T06:47:28;10.80;99.90
29413;DHT22;16389;50.126;8.450;2023-04-28T06:49:53;10.70;99.90
29413;DHT22;16389;50.126;8.450;2023-04-28T06:52:19;10.70;99.90
29413;DHT22;16389;50.126;8.450;2023-04-28T06:54:49;10.70;99.90
29413;DHT22;16389;50.126;8.450;2023-04-28T06:57:15;10.80;99.90
29413;DHT22;16389;50.126;8.450;2023-04-28T06:59:41;10.70;99.90
29413;DHT22;16389;50.126;8.450;2023-04-28T07:02:08;10.70;99.90
29413;DHT22;16389;50.126;8.450;2023-04-28T07:04:35;10.80;99.90
29413;DHT22;16389;50.126;8.450;2023-04-28T07:07:01;10.80;99.90
29413;DHT22;16389;50.126;8.450;2023-04-28T07:09:27;10.80;99.90
29413;DHT22;16389;50.126;8.450;2023-04-28T07:11:52;10.80;99.90
29413;DHT22;16389;50.126;8.450;2023-04-28T07:14:18;10.80;99.90
29413;DHT22;16389;50.126;8.450;2023-04-28T07:16:43;10.80;99.90
29413;DHT22;16389;50.126;8.450;2023-04-28T07:19:09;10.80;99.90
29413;DHT22;16389;50.126;8.450;2023-04-28T07:21:35;10.70;99.90
29413;DHT22;16389;50.126;8.450;2023-04-28T07:24:01;10.70;99.90
29413;DHT22;16389;50.126;8.450;2023-04-28T07:26:26;10.70;99.90
29413;DHT22;16389;50.126;8.450;2023-04-28T07:28:52;10.70;99.90
29413;DHT22;16389;50.126;8.450;2023-04-28T07:31:18;10.80;99.90
29413;DHT22;16389;50.126;8.450;2023-04-28T07:33:43;10.70;99.90
29413;DHT22;16389;50.126;8.450;2023-04-28T07:36:09;10.70;99.90
29413;DHT22;16389;50.126;8.450;2023-04-28T07:38:35;10.60;99.90
29413;DHT22;16389;50.126;8.450;2023-04-28T07:41:02;10.70;99.90
29413;DHT22;16389;50.126;8.450;2023-04-28T07:43:29;10.70;99.90
29413;DHT22;16389;50.126;8.450;2023-04-28T07:45:55;10.70;99.90
29413;DHT22;16389;50.126;8.450;2023-04-28T07:48:21;10.80;99.90
29413;DHT22;16389;50.126;8.450;2023-04-28T07:50:46;10.90;99.90
29413;DHT22;16389;50.126;8.450;2023-04-28T07:53:12;10.90;99.90
29413;DHT22;16389;50.126;8.450;2023-04-28T07:55:38;10.80;99.90
29413;DHT22;16389;50.126;8.450;2023-04-28T07:58:06;10.80;99.90
29413;DHT22;16389;50.126;8.450;2023-04-28T08:00:32;10.90;99.90
29413;DHT22;16389;50.126;8.450;2023-04-28T08:02:58;10.80;99.90
29413;DHT22;16389;50.126;8.450;2023-04-28T08:05:23;10.80;99.90
29413;DHT22;16389;50.126;8.450;2023-04-28T08:07:49;10.90;99.90
29413;DHT22;16389;50.126;8.450;2023-04-28T08:10:14;11.00;99.90
29413;DHT22;16389;50.126;8.450;2023-04-28T08:12:40;11.00;99.90
29413;DHT22;16389;50.126;8.450;2023-04-28T08:15:08;11.10;99.90
29413;DHT22;16389;50.126;8.450;2023-04-28T08:17:33;11.00;99.90
29413;DHT22;16389;50.126;8.450;2023-04-28T08:19:59;10.90;99.90
29413;DHT22;16389;50.126;8.450;2023-04-28T08:22:25;10.90;99.90
29413;DHT22;16389;50.126;8.450;2023-04-28T08:24:51;10.90;99.90
29413;DHT22;16389;50.126;8.450;2023-04-28T08:27:16;11.00;99.90
29413;DHT22;16389;50.126;8.450;2023-04-28T08:29:42;10.90;99.90
29413;DHT22;16389;50.126;8.450;2023-04-28T08:32:08;11.00;99.90
29413;DHT22;16389;50.126;8.450;2023-04-28T08:34:34;11.10;99.90
29413;DHT22;16389;50.126;8.450;2023-04-28T08:37:00;11.20;99.90
29413;DHT22;16389;50.126;8.450;2023-04-28T08:39:27;11.30;99.90
29413;DHT22;16389;50.126;8.450;2023-04-28T08:41:52;11.50;99.90
29413;DHT22;16389;50.126;8.450;2023-04-28T08:44:18;11.60;99.90
29413;DHT22;16389;50.126;8.450;2023-04-28T08:46:45;11.70;99.90
29413;DHT22;16389;50.126;8.450;2023-04-28T08:49:16;11.70;99.90
29413;DHT22;16389;50.126;8.450;2023-04-28T08:51:54;11.80;99.90
29413;DHT22;16389;50.126;8.450;2023-04-28T08:54:22;11.80;99.90
29413;DHT22;16389;50.126;8.450;2023-04-28T08:56:49;12.00;99.90
29413;DHT22;16389;50.126;8.450;2023-04-28T08:59:15;12.10;99.90
29413;DHT22;16389;50.126;8.450;2023-04-28T09:01:42;12.30;99.90
29413;DHT22;16389;50.126;8.450;2023-04-28T09:04:08;12.40;99.90
29413;DHT22;16389;50.126;8.450;2023-04-28T09:06:37;12.40;99.90
29413;DHT22;16389;50.126;8.450;2023-04-28T09:09:20;12.40;99.90
29413;DHT22;16389;50.126;8.450;2023-04-28T09:11:57;12.60;99.90
29413;DHT22;16389;50.126;8.450;2023-04-28T09:14:24;12.70;99.90
29413;DHT22;16389;50.126;8.450;2023-04-28T09:16:51;12.90;99.90
29413;DHT22;16389;50.126;8.450;2023-04-28T09:19:17;13.10;99.90
29413;DHT22;16389;50.126;8.450;2023-04-28T09:21:53;13.30;99.90
29413;DHT22;16389;50.126;8.450;2023-04-28T09:26:55;13.30;99.90
29413;DHT22;16389;50.126;8.450;2023-04-28T09:29:21;13.40;99.90
29413;DHT22;16389;50.126;8.450;2023-04-28T09:31:47;13.40;99.90
29413;DHT22;16389;50.126;8.450;2023-04-28T09:34:13;13.30;99.90
29413;DHT22;16389;50.126;8.450;2023-04-28T09:36:38;13.40;99.90
29413;DHT22;16389;50.126;8.450;2023-04-28T09:39:04;13.20;99.90
29413;DHT22;16389;50.126;8.450;2023-04-28T09:41:46;13.40;99.90
29413;DHT22;16389;50.126;8.450;2023-04-28T09:44:16;13.50;99.90
29413;DHT22;16389;50.126;8.450;2023-04-28T09:46:44;13.70;99.90
29413;DHT22;16389;50.126;8.450;2023-04-28T09:49:13;13.90;99.90
29413;DHT22;16389;50.126;8.450;2023-04-28T09:51:40;14.00;99.90
29413;DHT22;16389;50.126;8.450;2023-04-28T09:54:06;14.10;99.90
29413;DHT22;16389;50.126;8.450;2023-04-28T09:56:33;14.30;99.90
29413;DHT22;16389;50.126;8.450;2023-04-28T09:59:02;14.40;99.90
29413;DHT22;16389;50.126;8.450;2023-04-28T10:01:36;14.50;99.90
29413;DHT22;16389;50.126;8.450;2023-04-28T10:04:03;14.70;99.90
29413;DHT22;16389;50.126;8.450;2023-04-28T10:06:29;15.00;99.90
29413;DHT22;16389;50.126;8.450;2023-04-28T10:08:55;15.00;99.90
29413;DHT22;16389;50.126;8.450;2023-04-28T10:11:23;15.20;99.90
29413;DHT22;16389;50.126;8.450;2023-04-28T10:13:50;15.50;99.90
29413;DHT22;16389;50.126;8.450;2023-04-28T10:16:18;15.70;99.90
29413;DHT22;16389;50.126;8.450;2023-04-28T10:18:44;15.80;99.90
29413;DHT22;16389;50.126;8.450;2023-04-28T10:21:11;15.80;99.90
29413;DHT22;16389;50.126;8.450;2023-04-28T10:24:13;15.70;99.90
29413;DHT22;16389;50.126;8.450;2023-04-28T10:27:08;15.80;99.90
29413;DHT22;16389;50.126;8.450;2023-04-28T10:29:34;15.80;99.90
29413;DHT22;16389;50.126;8.450;2023-04-28T10:32:22;15.90;99.90
29413;DHT22;16389;50.126;8.450;2023-04-28T10:34:50;16.10;99.90
29413;DHT22;16389;50.126;8.450;2023-04-28T10:37:17;16.10;99.90
29413;DHT22;16389;50.126;8.450;2023-04-28T10:42:54;16.30;99.90
29413;DHT22;16389;50.126;8.450;2023-04-28T10:56:12;21.10;99.90
29413;DHT22;16389;50.126;8.450;2023-04-28T10:58:40;21.80;99.90
29413;DHT22;16389;50.126;8.450;2023-04-28T11:01:23;21.80;99.90
29413;DHT22;16389;50.126;8.450;2023-04-28T11:03:54;21.30;99.90
29413;DHT22;16389;50.126;8.450;2023-04-28T11:06:33;20.50;99.90
29413;DHT22;16389;50.126;8.450;2023-04-28T11:16:49;18.40;99.90
29413;DHT22;16389;50.126;8.450;2023-04-28T11:19:20;18.00;99.90
29413;DHT22;16389;50.126;8.450;2023-04-28T11:21:47;18.10;99.90
29413;DHT22;16389;50.126;8.450;2023-04-28T11:24:13;18.00;99.90
29413;DHT22;16389;50.126;8.450;2023-04-28T11:26:40;17.80;99.90
29413;DHT22;16389;50.126;8.450;2023-04-28T11:29:06;17.90;99.90
29413;DHT22;16389;50.126;8.450;2023-04-28T11:31:33;18.50;99.90
29413;DHT22;16389;50.126;8.450;2023-04-28T11:34:07;18.70;99.90
29413;DHT22;16389;50.126;8.450;2023-04-28T11:36:37;18.90;99.90
29413;DHT22;16389;50.126;8.450;2023-04-28T11:39:05;19.50;99.90
29413;DHT22;16389;50.126;8.450;2023-04-28T11:41:36;20.20;99.90
29413;DHT22;16389;50.126;8.450;2023-04-28T11:44:10;21.50;99.90
29413;DHT22;16389;50.126;8.450;2023-04-28T11:46:47;22.20;99.90
29413;DHT22;16389;50.126;8.450;2023-04-28T11:49:15;22.90;99.90
29413;DHT22;16389;50.126;8.450;2023-04-28T11:51:41;22.90;99.90
29413;DHT22;16389;50.126;8.450;2023-04-28T11:54:09;22.80;99.90
29413;DHT22;16389;50.126;8.450;2023-04-28T11:56:42;22.60;99.90
29413;DHT22;16389;50.126;8.450;2023-04-28T11:59:10;22.00;99.90
29413;DHT22;16389;50.126;8.450;2023-04-28T12:01:48;21.70;99.90
29413;DHT22;16389;50.126;8.450;2023-04-28T12:04:36;21.10;99.90
29413;DHT22;16389;50.126;8.450;2023-04-28T12:09:30;20.80;99.90
29413;DHT22;16389;50.126;8.450;2023-04-28T12:11:59;21.00;99.90
29413;DHT22;16389;50.126;8.450;2023-04-28T12:14:27;21.20;99.90
29413;DHT22;16389;50.126;8.450;2023-04-28T12:16:53;21.10;99.90
29413;DHT22;16389;50.126;8.450;2023-04-28T12:19:19;20.90;99.90
29413;DHT22;16389;50.126;8.450;2023-04-28T12:22:01;20.50;99.90
29413;DHT22;16389;50.126;8.450;2023-04-28T12:24:27;20.30;99.90
29413;DHT22;16389;50.126;8.450;2023-04-28T12:26:53;22.00;99.90
29413;DHT22;16389;50.126;8.450;2023-04-28T12:29:41;23.40;99.90
29413;DHT22;16389;50.126;8.450;2023-04-28T12:32:10;24.50;99.90
29413;DHT22;16389;50.126;8.450;2023-04-28T12:34:37;25.30;99.90
29413;DHT22;16389;50.126;8.450;2023-04-28T12:37:04;26.30;99.90
29413;DHT22;16389;50.126;8.450;2023-04-28T12:39:34;26.80;99.50
29413;DHT22;16389;50.126;8.450;2023-04-28T12:42:01;27.60;99.90
29413;DHT22;16389;50.126;8.450;2023-04-28T12:44:34;27.80;98.20
29413;DHT22;16389;50.126;8.450;2023-04-28T12:47:01;29.10;95.50
29413;DHT22;16389;50.126;8.450;2023-04-28T12:49:27;29.90;95.20
29413;DHT22;16389;50.126;8.450;2023-04-28T12:51:53;30.20;90.70
29413;DHT22;16389;50.126;8.450;2023-04-28T12:54:19;29.70;90.80
29413;DHT22;16389;50.126;8.450;2023-04-28T12:56:44;27.40;93.00
29413;DHT22;16389;50.126;8.450;2023-04-28T12:59:10;25.70;95.10
29413;DHT22;16389;50.126;8.450;2023-04-28T13:01:36;24.40;97.70
29413;DHT22;16389;50.126;8.450;2023-04-28T13:04:02;23.40;99.90
29413;DHT22;16389;50.126;8.450;2023-04-28T13:06:28;22.60;99.90
29413;DHT22;16389;50.126;8.450;2023-04-28T13:08:54;22.40;99.90
29413;DHT22;16389;50.126;8.450;2023-04-28T13:11:20;21.80;99.90
29413;DHT22;16389;50.126;8.450;2023-04-28T13:13:46;23.00;99.90
29413;DHT22;16389;50.126;8.450;2023-04-28T13:16:11;24.20;99.90
29413;DHT22;16389;50.126;8.450;2023-04-28T13:18:39;25.50;99.90
29413;DHT22;16389;50.126;8.450;2023-04-28T13:21:04;25.60;99.10
29413;DHT22;16389;50.126;8.450;2023-04-28T13:23:30;24.60;99.60
29413;DHT22;16389;50.126;8.450;2023-04-28T13:25:56;23.80;99.90
29413;DHT22;16389;50.126;8.450;2023-04-28T13:28:21;22.80;99.90
29413;DHT22;16389;50.126;8.450;2023-04-28T13:30:47;22.00;99.90
29413;DHT22;16389;50.126;8.450;2023-04-28T13:33:13;21.20;99.90
29413;DHT22;16389;50.126;8.450;2023-04-28T13:35:38;20.60;99.90
29413;DHT22;16389;50.126;8.450;2023-04-28T13:38:04;19.80;99.90
29413;DHT22;16389;50.126;8.450;2023-04-28T13:40:31;19.30;99.90
29413;DHT22;16389;50.126;8.450;2023-04-28T13:42:58;18.80;99.90
29413;DHT22;16389;50.126;8.450;2023-04-28T13:45:23;18.40;99.90
29413;DHT22;16389;50.126;8.450;2023-04-28T13:47:50;18.10;99.90
29413;DHT22;16389;50.126;8.450;2023-04-28T13:50:16;17.90;99.90
29413;DHT22;16389;50.126;8.450;2023-04-28T13:52:42;17.70;99.90
29413;DHT22;16389;50.126;8.450;2023-04-28T13:55:07;17.70;99.90
29413;DHT22;16389;50.126;8.450;2023-04-28T13:57:34;17.70;99.90
29413;DHT22;16389;50.126;8.450;2023-04-28T14:00:00;17.70;99.90
29413;DHT22;16389;50.126;8.450;2023-04-28T14:02:25;17.70;99.90
29413;DHT22;16389;50.126;8.450;2023-04-28T14:04:51;17.70;99.90
29413;DHT22;16389;50.126;8.450;2023-04-28T14:07:17;17.50;99.90
29413;DHT22;16389;50.126;8.450;2023-04-28T14:09:43;17.40;99.90
29413;DHT22;16389;50.126;8.450;2023-04-28T14:12:09;17.30;99.90
29413;DHT22;16389;50.126;8.450;2023-04-28T14:14:35;17.30;99.90
29413;DHT22;16389;50.126;8.450;2023-04-28T14:17:01;17.50;99.90
29413;DHT22;16389;50.126;8.450;2023-04-28T14:19:27;17.60;99.90
29413;DHT22;16389;50.126;8.450;2023-04-28T14:21:53;17.70;99.90
29413;DHT22;16389;50.126;8.450;2023-04-28T14:24:19;18.50;99.90
29413;DHT22;16389;50.126;8.450;2023-04-28T14:26:45;19.40;99.90
29413;DHT22;16389;50.126;8.450;2023-04-28T14:29:11;20.50;99.90
29413;DHT22;16389;50.126;8.450;2023-04-28T14:31:37;21.00;99.90
29413;DHT22;16389;50.126;8.450;2023-04-28T14:34:04;21.20;99.90
29413;DHT22;16389;50.126;8.450;2023-04-28T14:36:33;21.40;99.90
29413;DHT22;16389;50.126;8.450;2023-04-28T14:38:59;21.80;99.90
29413;DHT22;16389;50.126;8.450;2023-04-28T14:41:25;21.90;99.90
29413;DHT22;16389;50.126;8.450;2023-04-28T14:43:50;21.30;99.90
29413;DHT22;16389;50.126;8.450;2023-04-28T14:46:16;20.80;99.90
29413;DHT22;16389;50.126;8.450;2023-04-28T14:48:48;20.50;99.90
29413;DHT22;16389;50.126;8.450;2023-04-28T14:51:14;20.10;99.90
29413;DHT22;16389;50.126;8.450;2023-04-28T14:53:40;20.00;99.90
29413;DHT22;16389;50.126;8.450;2023-04-28T14:56:07;19.80;99.90
29413;DHT22;16389;50.126;8.450;2023-04-28T14:58:36;19.50;99.90
29413;DHT22;16389;50.126;8.450;2023-04-28T15:01:01;19.50;99.90
29413;DHT22;16389;50.126;8.450;2023-04-28T15:03:28;19.30;99.90
29413;DHT22;16389;50.126;8.450;2023-04-28T15:05:54;19.10;99.90
29413;DHT22;16389;50.126;8.450;2023-04-28T15:08:19;19.00;99.90
29413;DHT22;16389;50.126;8.450;2023-04-28T15:10:45;19.00;99.90
29413;DHT22;16389;50.126;8.450;2023-04-28T15:13:11;18.90;99.90
29413;DHT22;16389;50.126;8.450;2023-04-28T15:15:36;18.90;99.90
29413;DHT22;16389;50.126;8.450;2023-04-28T15:18:03;18.80;99.90
29413;DHT22;16389;50.126;8.450;2023-04-28T15:20:30;18.70;99.90
29413;DHT22;16389;50.126;8.450;2023-04-28T15:22:57;18.70;99.90
29413;DHT22;16389;50.126;8.450;2023-04-28T15:25:24;18.60;99.90
29413;DHT22;16389;50.126;8.450;2023-04-28T15:27:50;18.40;99.90
29413;DHT22;16389;50.126;8.450;2023-04-28T15:30:16;18.20;99.90
29413;DHT22;16389;50.126;8.450;2023-04-28T15:32:42;18.00;99.90
29413;DHT22;16389;50.126;8.450;2023-04-28T15:35:09;17.90;99.90
29413;DHT22;16389;50.126;8.450;2023-04-28T15:37:39;17.70;99.90
29413;DHT22;16389;50.126;8.450;2023-04-28T15:40:11;17.50;99.90
29413;DHT22;16389;50.126;8.450;2023-04-28T15:42:37;17.50;99.90
29413;DHT22;16389;50.126;8.450;2023-04-28T15:45:04;17.40;99.90
29413;DHT22;16389;50.126;8.450;2023-04-28T15:47:30;17.30;99.90
29413;DHT22;16389;50.126;8.450;2023-04-28T15:49:57;17.30;99.90
29413;DHT22;16389;50.126;8.450;2023-04-28T15:52:23;17.30;99.90
29413;DHT22;16389;50.126;8.450;2023-04-28T15:54:49;17.20;99.90
29413;DHT22;16389;50.126;8.450;2023-04-28T15:57:15;17.10;99.90
29413;DHT22;16389;50.126;8.450;2023-04-28T15:59:40;17.00;99.90
29413;DHT22;16389;50.126;8.450;2023-04-28T16:02:06;17.00;99.90
29413;DHT22;16389;50.126;8.450;2023-04-28T16:04:32;16.90;99.90
29413;DHT22;16389;50.126;8.450;2023-04-28T16:06:58;16.80;99.90
29413;DHT22;16389;50.126;8.450;2023-04-28T16:09:27;16.70;99.90
29413;DHT22;16389;50.126;8.450;2023-04-28T16:11:53;16.50;99.90
29413;DHT22;16389;50.126;8.450;2023-04-28T16:14:21;16.50;99.90
29413;DHT22;16389;50.126;8.450;2023-04-28T16:16:47;16.50;99.90
29413;DHT22;16389;50.126;8.450;2023-04-28T16:19:14;16.60;99.90
29413;DHT22;16389;50.126;8.450;2023-04-28T16:21:40;16.50;99.90
29413;DHT22;16389;50.126;8.450;2023-04-28T16:24:06;16.30;99.90
29413;DHT22;16389;50.126;8.450;2023-04-28T16:26:32;16.30;99.90
29413;DHT22;16389;50.126;8.450;2023-04-28T16:28:58;16.30;99.90
29413;DHT22;16389;50.126;8.450;2023-04-28T16:31:24;16.30;99.90
29413;DHT22;16389;50.126;8.450;2023-04-28T16:33:50;16.40;99.90
29413;DHT22;16389;50.126;8.450;2023-04-28T16:36:16;16.40;99.90
29413;DHT22;16389;50.126;8.450;2023-04-28T16:38:42;16.40;99.90
29413;DHT22;16389;50.126;8.450;2023-04-28T16:41:07;16.30;99.90
29413;DHT22;16389;50.126;8.450;2023-04-28T16:43:33;16.40;99.90
29413;DHT22;16389;50.126;8.450;2023-04-28T16:46:00;16.50;99.90
29413;DHT22;16389;50.126;8.450;2023-04-28T16:48:26;16.50;99.90
29413;DHT22;16389;50.126;8.450;2023-04-28T16:50:52;16.60;99.90
29413;DHT22;16389;50.126;8.450;2023-04-28T16:53:18;16.80;99.90